sensor_id;sensor_type;location;lat;lon;timestamp;temperature;humidity
75621;DHT22;64574;48.506;-2.750;2023-02-21T00:02:11;6.30;85.10
75621;DHT22;64574;48.506;-2.750;2023-02-21T00:04:56;6.30;85.50
75621;DHT22;64574;48.506;-2.750;2023-02-21T00:07:40;6.30;85.80
75621;DHT22;64574;48.506;-2.750;2023-02-21T00:10:24;6.20;86.00
75621;DHT22;64574;48.506;-2.750;2023-02-21T00:13:08;6.20;86.50
75621;DHT22;64574;48.506;-2.750;2023-02-21T00:15:52;6.20;86.90
75621;DHT22;64574;48.506;-2.750;2023-02-21T00:18:37;6.30;87.40
75621;DHT22;64574;48.506;-2.750;2023-02-21T00:21:22;6.30;87.70
75621;DHT22;64574;48.506;-2.750;2023-02-21T00:24:06;6.30;88.10
75621;DHT22;64574;48.506;-2.750;2023-02-21T00:26:50;6.30;88.20
75621;DHT22;64574;48.506;-2.750;2023-02-21T00:29:34;6.30;87.90
75621;DHT22;64574;48.506;-2.750;2023-02-21T00:32:18;6.40;87.80
75621;DHT22;64574;48.506;-2.750;2023-02-21T00:35:02;6.40;87.90
75621;DHT22;64574;48.506;-2.750;2023-02-21T00:37:51;6.30;88.00
75621;DHT22;64574;48.506;-2.750;2023-02-21T00:40:35;6.40;87.70
75621;DHT22;64574;48.506;-2.750;2023-02-21T00:43:19;6.30;87.20
75621;DHT22;64574;48.506;-2.750;2023-02-21T00:46:03;6.30;87.20
75621;DHT22;64574;48.506;-2.750;2023-02-21T00:48:47;6.40;87.30
75621;DHT22;64574;48.506;-2.750;2023-02-21T00:51:32;6.50;87.40
75621;DHT22;64574;48.506;-2.750;2023-02-21T00:54:16;6.40;87.40
75621;DHT22;64574;48.506;-2.750;2023-02-21T00:57:00;6.40;87.60
75621;DHT22;64574;48.506;-2.750;2023-02-21T00:59:44;6.50;87.40
75621;DHT22;64574;48.506;-2.750;2023-02-21T01:02:28;6.40;87.20
75621;DHT22;64574;48.506;-2.750;2023-02-21T01:05:12;6.40;87.40
75621;DHT22;64574;48.506;-2.750;2023-02-21T01:07:56;6.40;87.50
75621;DHT22;64574;48.506;-2.750;2023-02-21T01:10:40;6.50;87.80
75621;DHT22;64574;48.506;-2.750;2023-02-21T01:13:24;6.50;88.00
75621;DHT22;64574;48.506;-2.750;2023-02-21T01:16:08;6.50;88.00
75621;DHT22;64574;48.506;-2.750;2023-02-21T01:18:52;6.40;87.90
75621;DHT22;64574;48.506;-2.750;2023-02-21T01:21:36;6.50;88.20
75621;DHT22;64574;48.506;-2.750;2023-02-21T01:24:20;6.50;88.20
75621;DHT22;64574;48.506;-2.750;2023-02-21T01:27:04;6.40;88.00
75621;DHT22;64574;48.506;-2.750;2023-02-21T01:29:48;6.50;88.00
75621;DHT22;64574;48.506;-2.750;2023-02-21T01:32:32;6.50;87.90
75621;DHT22;64574;48.506;-2.750;2023-02-21T01:35:16;6.40;88.30
75621;DHT22;64574;48.506;-2.750;2023-02-21T01:38:00;6.40;88.10
75621;DHT22;64574;48.506;-2.750;2023-02-21T01:40:44;6.40;88.10
75621;DHT22;64574;48.506;-2.750;2023-02-21T01:43:29;6.40;88.00
75621;DHT22;64574;48.506;-2.750;2023-02-21T01:46:15;6.40;88.00
75621;DHT22;64574;48.506;-2.750;2023-02-21T01:49:05;6.40;87.80
75621;DHT22;64574;48.506;-2.750;2023-02-21T01:51:50;6.30;87.90
75621;DHT22;64574;48.506;-2.750;2023-02-21T01:54:40;6.40;87.80
75621;DHT22;64574;48.506;-2.750;2023-02-21T01:57:25;6.50;87.70
75621;DHT22;64574;48.506;-2.750;2023-02-21T02:00:11;6.40;87.80
75621;DHT22;64574;48.506;-2.750;2023-02-21T02:05:46;6.40;88.20
75621;DHT22;64574;48.506;-2.750;2023-02-21T02:08:32;6.40;88.40
75621;DHT22;64574;48.506;-2.750;2023-02-21T02:15:01;6.40;88.30
75621;DHT22;64574;48.506;-2.750;2023-02-21T02:36:40;6.40;89.20
75621;DHT22;64574;48.506;-2.750;2023-02-21T02:42:26;6.40;89.10
75621;DHT22;64574;48.506;-2.750;2023-02-21T02:45:15;6.40;89.00
75621;DHT22;64574;48.506;-2.750;2023-02-21T02:47:44;6.40;89.40
75621;DHT22;64574;48.506;-2.750;2023-02-21T02:50:15;6.40;89.70
75621;DHT22;64574;48.506;-2.750;2023-02-21T02:53:02;6.30;89.80
75621;DHT22;64574;48.506;-2.750;2023-02-21T02:58:11;6.40;90.30
75621;DHT22;64574;48.506;-2.750;2023-02-21T03:00:41;6.40;89.90
75621;DHT22;64574;48.506;-2.750;2023-02-21T03:08:46;6.40;90.00
75621;DHT22;64574;48.506;-2.750;2023-02-21T03:11:23;6.30;90.10
75621;DHT22;64574;48.506;-2.750;2023-02-21T03:13:56;6.30;89.80
75621;DHT22;64574;48.506;-2.750;2023-02-21T03:16:38;6.40;89.80
75621;DHT22;64574;48.506;-2.750;2023-02-21T03:19:21;6.30;89.60
75621;DHT22;64574;48.506;-2.750;2023-02-21T03:21:53;6.40;89.70
75621;DHT22;64574;48.506;-2.750;2023-02-21T03:24:20;6.40;90.00
75621;DHT22;64574;48.506;-2.750;2023-02-21T03:26:50;6.40;89.80
75621;DHT22;64574;48.506;-2.750;2023-02-21T03:29:16;6.40;90.00
75621;DHT22;64574;48.506;-2.750;2023-02-21T03:31:49;6.40;89.90
75621;DHT22;64574;48.506;-2.750;2023-02-21T03:34:16;6.30;89.80
75621;DHT22;64574;48.506;-2.750;2023-02-21T03:36:42;6.40;90.10
75621;DHT22;64574;48.506;-2.750;2023-02-21T03:39:08;6.40;90.00
75621;DHT22;64574;48.506;-2.750;2023-02-21T03:41:33;6.40;89.90
75621;DHT22;64574;48.506;-2.750;2023-02-21T03:43:59;6.20;90.00
75621;DHT22;64574;48.506;-2.750;2023-02-21T03:46:24;6.20;89.90
75621;DHT22;64574;48.506;-2.750;2023-02-21T03:48:50;6.30;89.80
75621;DHT22;64574;48.506;-2.750;2023-02-21T03:51:16;6.30;89.80
75621;DHT22;64574;48.506;-2.750;2023-02-21T03:53:41;6.30;89.70
75621;DHT22;64574;48.506;-2.750;2023-02-21T03:56:07;6.30;89.90
75621;DHT22;64574;48.506;-2.750;2023-02-21T03:58:33;6.30;89.60
75621;DHT22;64574;48.506;-2.750;2023-02-21T04:00:59;6.30;89.80
75621;DHT22;64574;48.506;-2.750;2023-02-21T04:03:24;6.20;89.60
75621;DHT22;64574;48.506;-2.750;2023-02-21T04:05:50;6.10;89.30
75621;DHT22;64574;48.506;-2.750;2023-02-21T04:08:16;6.20;89.30
75621;DHT22;64574;48.506;-2.750;2023-02-21T04:10:42;6.20;89.10
75621;DHT22;64574;48.506;-2.750;2023-02-21T04:13:07;6.30;89.20
75621;DHT22;64574;48.506;-2.750;2023-02-21T04:15:34;6.20;89.10
75621;DHT22;64574;48.506;-2.750;2023-02-21T04:18:00;6.20;88.90
75621;DHT22;64574;48.506;-2.750;2023-02-21T04:20:26;6.20;89.10
75621;DHT22;64574;48.506;-2.750;2023-02-21T04:22:51;6.20;88.90
75621;DHT22;64574;48.506;-2.750;2023-02-21T04:25:17;6.20;89.30
75621;DHT22;64574;48.506;-2.750;2023-02-21T04:27:42;6.30;89.50
75621;DHT22;64574;48.506;-2.750;2023-02-21T04:30:09;6.20;89.10
75621;DHT22;64574;48.506;-2.750;2023-02-21T04:32:34;6.20;89.30
75621;DHT22;64574;48.506;-2.750;2023-02-21T04:35:00;6.20;89.30
75621;DHT22;64574;48.506;-2.750;2023-02-21T04:37:26;6.20;89.60
75621;DHT22;64574;48.506;-2.750;2023-02-21T04:39:51;6.20;89.80
75621;DHT22;64574;48.506;-2.750;2023-02-21T04:42:17;6.20;90.00
75621;DHT22;64574;48.506;-2.750;2023-02-21T04:44:43;6.20;89.90
75621;DHT22;64574;48.506;-2.750;2023-02-21T04:47:08;6.10;89.90
75621;DHT22;64574;48.506;-2.750;2023-02-21T04:49:34;6.20;90.20
75621;DHT22;64574;48.506;-2.750;2023-02-21T04:51:59;6.10;90.20
75621;DHT22;64574;48.506;-2.750;2023-02-21T04:54:25;6.10;90.40
75621;DHT22;64574;48.506;-2.750;2023-02-21T04:56:50;6.10;90.60
75621;DHT22;64574;48.506;-2.750;2023-02-21T04:59:16;6.20;90.50
75621;DHT22;64574;48.506;-2.750;2023-02-21T05:01:42;6.10;90.60
75621;DHT22;64574;48.506;-2.750;2023-02-21T05:04:07;6.20;90.70
75621;DHT22;64574;48.506;-2.750;2023-02-21T05:06:33;6.20;90.80
75621;DHT22;64574;48.506;-2.750;2023-02-21T05:08:59;6.10;90.80
75621;DHT22;64574;48.506;-2.750;2023-02-21T05:11:25;6.10;90.50
75621;DHT22;64574;48.506;-2.750;2023-02-21T05:13:51;6.00;90.50
75621;DHT22;64574;48.506;-2.750;2023-02-21T05:16:17;6.10;90.50
75621;DHT22;64574;48.506;-2.750;2023-02-21T05:18:47;6.10;90.70
75621;DHT22;64574;48.506;-2.750;2023-02-21T05:21:15;5.90;90.70
75621;DHT22;64574;48.506;-2.750;2023-02-21T05:23:42;6.00;90.50
75621;DHT22;64574;48.506;-2.750;2023-02-21T05:26:22;5.90;90.10
75621;DHT22;64574;48.506;-2.750;2023-02-21T05:28:49;6.00;90.30
75621;DHT22;64574;48.506;-2.750;2023-02-21T05:31:16;6.00;90.10
75621;DHT22;64574;48.506;-2.750;2023-02-21T05:33:41;6.00;90.00
75621;DHT22;64574;48.506;-2.750;2023-02-21T05:36:07;5.90;89.80
75621;DHT22;64574;48.506;-2.750;2023-02-21T05:38:36;6.00;90.00
75621;DHT22;64574;48.506;-2.750;2023-02-21T05:41:08;6.00;90.00
75621;DHT22;64574;48.506;-2.750;2023-02-21T05:43:33;6.00;89.70
75621;DHT22;64574;48.506;-2.750;2023-02-21T05:45:59;6.00;89.60
75621;DHT22;64574;48.506;-2.750;2023-02-21T05:48:24;6.00;89.10
75621;DHT22;64574;48.506;-2.750;2023-02-21T05:50:50;6.00;89.10
75621;DHT22;64574;48.506;-2.750;2023-02-21T05:53:16;5.90;88.70
75621;DHT22;64574;48.506;-2.750;2023-02-21T05:55:41;6.00;88.80
75621;DHT22;64574;48.506;-2.750;2023-02-21T05:58:07;6.00;89.00
75621;DHT22;64574;48.506;-2.750;2023-02-21T06:00:32;6.00;89.00
75621;DHT22;64574;48.506;-2.750;2023-02-21T06:02:58;5.90;89.00
75621;DHT22;64574;48.506;-2.750;2023-02-21T06:05:24;6.00;89.20
75621;DHT22;64574;48.506;-2.750;2023-02-21T06:07:50;6.00;89.50
75621;DHT22;64574;48.506;-2.750;2023-02-21T06:10:16;6.10;89.50
75621;DHT22;64574;48.506;-2.750;2023-02-21T06:12:42;5.90;89.40
75621;DHT22;64574;48.506;-2.750;2023-02-21T06:15:08;5.90;88.80
75621;DHT22;64574;48.506;-2.750;2023-02-21T06:17:38;5.80;88.70
75621;DHT22;64574;48.506;-2.750;2023-02-21T06:20:05;5.90;88.80
75621;DHT22;64574;48.506;-2.750;2023-02-21T06:22:31;5.90;88.80
75621;DHT22;64574;48.506;-2.750;2023-02-21T06:24:57;5.90;88.90
75621;DHT22;64574;48.506;-2.750;2023-02-21T06:27:23;5.80;88.90
75621;DHT22;64574;48.506;-2.750;2023-02-21T06:29:49;5.90;89.10
75621;DHT22;64574;48.506;-2.750;2023-02-21T06:32:15;5.80;89.10
75621;DHT22;64574;48.506;-2.750;2023-02-21T06:34:43;5.90;89.30
75621;DHT22;64574;48.506;-2.750;2023-02-21T06:37:09;5.90;89.40
75621;DHT22;64574;48.506;-2.750;2023-02-21T06:39:34;5.90;89.40
75621;DHT22;64574;48.506;-2.750;2023-02-21T06:42:00;6.00;89.70
75621;DHT22;64574;48.506;-2.750;2023-02-21T06:44:26;6.00;89.70
75621;DHT22;64574;48.506;-2.750;2023-02-21T06:46:52;6.00;89.80
75621;DHT22;64574;48.506;-2.750;2023-02-21T06:49:20;6.00;89.80
75621;DHT22;64574;48.506;-2.750;2023-02-21T06:51:46;6.00;89.80
75621;DHT22;64574;48.506;-2.750;2023-02-21T06:54:12;6.00;89.90
75621;DHT22;64574;48.506;-2.750;2023-02-21T06:56:38;5.90;89.70
75621;DHT22;64574;48.506;-2.750;2023-02-21T06:59:04;5.90;89.80
75621;DHT22;64574;48.506;-2.750;2023-02-21T07:01:30;6.00;90.00
75621;DHT22;64574;48.506;-2.750;2023-02-21T07:03:57;6.00;89.90
75621;DHT22;64574;48.506;-2.750;2023-02-21T07:06:23;5.90;89.80
75621;DHT22;64574;48.506;-2.750;2023-02-21T07:08:49;5.90;89.60
75621;DHT22;64574;48.506;-2.750;2023-02-21T07:11:17;5.90;89.60
75621;DHT22;64574;48.506;-2.750;2023-02-21T07:13:49;5.90;90.00
75621;DHT22;64574;48.506;-2.750;2023-02-21T07:16:15;5.90;90.00
75621;DHT22;64574;48.506;-2.750;2023-02-21T07:18:43;5.80;89.90
75621;DHT22;64574;48.506;-2.750;2023-02-21T07:21:10;5.90;90.00
75621;DHT22;64574;48.506;-2.750;2023-02-21T07:23:36;5.80;89.50
75621;DHT22;64574;48.506;-2.750;2023-02-21T07:26:02;5.80;89.30
75621;DHT22;64574;48.506;-2.750;2023-02-21T07:28:28;5.70;89.10
75621;DHT22;64574;48.506;-2.750;2023-02-21T07:30:54;5.70;89.00
75621;DHT22;64574;48.506;-2.750;2023-02-21T07:33:20;5.80;89.30
75621;DHT22;64574;48.506;-2.750;2023-02-21T07:35:45;5.80;89.30
75621;DHT22;64574;48.506;-2.750;2023-02-21T07:38:23;5.80;89.40
75621;DHT22;64574;48.506;-2.750;2023-02-21T07:40:49;5.70;89.30
75621;DHT22;64574;48.506;-2.750;2023-02-21T07:43:15;5.80;89.30
75621;DHT22;64574;48.506;-2.750;2023-02-21T07:45:41;5.80;89.60
75621;DHT22;64574;48.506;-2.750;2023-02-21T07:48:07;5.80;89.50
75621;DHT22;64574;48.506;-2.750;2023-02-21T07:50:32;5.80;89.60
75621;DHT22;64574;48.506;-2.750;2023-02-21T07:52:58;5.90;89.50
75621;DHT22;64574;48.506;-2.750;2023-02-21T07:55:25;5.90;89.50
75621;DHT22;64574;48.506;-2.750;2023-02-21T07:57:52;5.90;89.30
75621;DHT22;64574;48.506;-2.750;2023-02-21T08:00:18;5.80;89.30
75621;DHT22;64574;48.506;-2.750;2023-02-21T08:02:47;5.90;89.10
75621;DHT22;64574;48.506;-2.750;2023-02-21T08:05:14;6.00;88.90
75621;DHT22;64574;48.506;-2.750;2023-02-21T08:07:40;5.80;88.60
75621;DHT22;64574;48.506;-2.750;2023-02-21T08:10:06;5.70;88.30
75621;DHT22;64574;48.506;-2.750;2023-02-21T08:12:32;5.70;88.30
75621;DHT22;64574;48.506;-2.750;2023-02-21T08:14:58;5.80;88.20
75621;DHT22;64574;48.506;-2.750;2023-02-21T08:17:24;5.60;88.40
75621;DHT22;64574;48.506;-2.750;2023-02-21T08:19:50;5.60;88.30
75621;DHT22;64574;48.506;-2.750;2023-02-21T08:22:15;5.60;88.40
75621;DHT22;64574;48.506;-2.750;2023-02-21T08:24:41;5.60;88.40
75621;DHT22;64574;48.506;-2.750;2023-02-21T08:27:06;5.60;88.50
75621;DHT22;64574;48.506;-2.750;2023-02-21T08:29:32;5.60;88.40
75621;DHT22;64574;48.506;-2.750;2023-02-21T08:31:58;5.50;87.90
75621;DHT22;64574;48.506;-2.750;2023-02-21T08:34:23;5.50;87.80
75621;DHT22;64574;48.506;-2.750;2023-02-21T08:36:49;5.50;87.80
75621;DHT22;64574;48.506;-2.750;2023-02-21T08:39:15;5.60;87.80
75621;DHT22;64574;48.506;-2.750;2023-02-21T08:41:45;5.60;87.60
75621;DHT22;64574;48.506;-2.750;2023-02-21T08:44:12;5.70;87.80
75621;DHT22;64574;48.506;-2.750;2023-02-21T08:46:40;5.70;87.80
75621;DHT22;64574;48.506;-2.750;2023-02-21T08:49:06;5.70;87.80
75621;DHT22;64574;48.506;-2.750;2023-02-21T08:51:33;5.70;87.90
75621;DHT22;64574;48.506;-2.750;2023-02-21T08:53:59;5.80;88.00
75621;DHT22;64574;48.506;-2.750;2023-02-21T08:56:26;5.80;87.90
75621;DHT22;64574;48.506;-2.750;2023-02-21T08:58:53;5.70;87.70
75621;DHT22;64574;48.506;-2.750;2023-02-21T09:01:22;5.80;87.60
75621;DHT22;64574;48.506;-2.750;2023-02-21T09:03:48;5.80;87.50
75621;DHT22;64574;48.506;-2.750;2023-02-21T09:06:13;5.90;87.60
75621;DHT22;64574;48.506;-2.750;2023-02-21T09:08:39;6.00;87.60
75621;DHT22;64574;48.506;-2.750;2023-02-21T09:11:06;6.10;87.50
75621;DHT22;64574;48.506;-2.750;2023-02-21T09:13:32;6.10;87.50
75621;DHT22;64574;48.506;-2.750;2023-02-21T09:15:59;6.20;87.50
75621;DHT22;64574;48.506;-2.750;2023-02-21T09:18:26;6.10;87.20
75621;DHT22;64574;48.506;-2.750;2023-02-21T09:20:52;6.10;87.20
75621;DHT22;64574;48.506;-2.750;2023-02-21T09:23:20;6.20;87.20
75621;DHT22;64574;48.506;-2.750;2023-02-21T09:25:49;6.20;87.10
75621;DHT22;64574;48.506;-2.750;2023-02-21T09:28:15;6.20;87.20
75621;DHT22;64574;48.506;-2.750;2023-02-21T09:30:41;6.10;87.20
75621;DHT22;64574;48.506;-2.750;2023-02-21T09:33:08;6.20;87.30
75621;DHT22;64574;48.506;-2.750;2023-02-21T09:35:34;6.20;87.30
75621;DHT22;64574;48.506;-2.750;2023-02-21T09:38:00;6.30;86.90
75621;DHT22;64574;48.506;-2.750;2023-02-21T09:43:05;6.20;86.40
75621;DHT22;64574;48.506;-2.750;2023-02-21T09:45:35;6.20;86.40
75621;DHT22;64574;48.506;-2.750;2023-02-21T09:48:08;6.10;86.10
75621;DHT22;64574;48.506;-2.750;2023-02-21T09:50:44;6.10;86.10
75621;DHT22;64574;48.506;-2.750;2023-02-21T09:53:15;6.20;86.10
75621;DHT22;64574;48.506;-2.750;2023-02-21T09:55:43;6.20;85.80
75621;DHT22;64574;48.506;-2.750;2023-02-21T09:58:11;6.30;85.60
75621;DHT22;64574;48.506;-2.750;2023-02-21T10:00:38;6.40;85.80
75621;DHT22;64574;48.506;-2.750;2023-02-21T10:05:45;6.60;85.50
75621;DHT22;64574;48.506;-2.750;2023-02-21T10:08:19;6.60;84.90
75621;DHT22;64574;48.506;-2.750;2023-02-21T10:10:50;6.70;84.60
75621;DHT22;64574;48.506;-2.750;2023-02-21T10:20:58;6.70;84.20
75621;DHT22;64574;48.506;-2.750;2023-02-21T10:23:37;6.80;84.10
75621;DHT22;64574;48.506;-2.750;2023-02-21T10:26:08;6.80;84.30
75621;DHT22;64574;48.506;-2.750;2023-02-21T10:28:35;6.90;84.50
75621;DHT22;64574;48.506;-2.750;2023-02-21T10:31:11;6.90;84.40
75621;DHT22;64574;48.506;-2.750;2023-02-21T10:33:39;7.00;84.10
75621;DHT22;64574;48.506;-2.750;2023-02-21T10:36:21;7.00;84.00
75621;DHT22;64574;48.506;-2.750;2023-02-21T10:39:02;7.00;84.10
75621;DHT22;64574;48.506;-2.750;2023-02-21T10:41:29;7.00;84.00
75621;DHT22;64574;48.506;-2.750;2023-02-21T10:44:13;7.20;84.10
75621;DHT22;64574;48.506;-2.750;2023-02-21T10:46:46;7.20;84.00
75621;DHT22;64574;48.506;-2.750;2023-02-21T10:49:29;7.20;83.70
75621;DHT22;64574;48.506;-2.750;2023-02-21T10:54:28;7.40;83.30
75621;DHT22;64574;48.506;-2.750;2023-02-21T10:56:54;7.50;83.00
75621;DHT22;64574;48.506;-2.750;2023-02-21T10:59:33;7.50;82.80
75621;DHT22;64574;48.506;-2.750;2023-02-21T11:02:01;7.60;82.80
75621;DHT22;64574;48.506;-2.750;2023-02-21T11:04:30;7.60;82.60
75621;DHT22;64574;48.506;-2.750;2023-02-21T11:07:09;7.60;82.50
75621;DHT22;64574;48.506;-2.750;2023-02-21T11:09:46;7.60;82.30
75621;DHT22;64574;48.506;-2.750;2023-02-21T11:12:21;7.60;82.40
75621;DHT22;64574;48.506;-2.750;2023-02-21T11:20:02;7.60;82.30
75621;DHT22;64574;48.506;-2.750;2023-02-21T11:22:37;7.70;82.50
75621;DHT22;64574;48.506;-2.750;2023-02-21T11:30:36;7.50;82.60
75621;DHT22;64574;48.506;-2.750;2023-02-21T11:33:04;7.60;82.30
75621;DHT22;64574;48.506;-2.750;2023-02-21T11:35:34;7.60;82.10
75621;DHT22;64574;48.506;-2.750;2023-02-21T11:38:07;7.50;82.00
75621;DHT22;64574;48.506;-2.750;2023-02-21T11:40:50;7.70;82.30
75621;DHT22;64574;48.506;-2.750;2023-02-21T11:43:19;7.70;82.00
75621;DHT22;64574;48.506;-2.750;2023-02-21T11:48:38;7.80;81.80
75621;DHT22;64574;48.506;-2.750;2023-02-21T11:51:26;7.90;81.50
75621;DHT22;64574;48.506;-2.750;2023-02-21T11:53:53;7.80;81.70
75621;DHT22;64574;48.506;-2.750;2023-02-21T11:59:24;8.00;81.40
75621;DHT22;64574;48.506;-2.750;2023-02-21T12:02:25;8.00;81.20
75621;DHT22;64574;48.506;-2.750;2023-02-21T12:16:11;8.20;80.70
75621;DHT22;64574;48.506;-2.750;2023-02-21T12:18:58;8.30;80.70
75621;DHT22;64574;48.506;-2.750;2023-02-21T12:21:51;8.30;80.50
75621;DHT22;64574;48.506;-2.750;2023-02-21T12:41:07;8.60;80.40
75621;DHT22;64574;48.506;-2.750;2023-02-21T12:46:47;8.60;80.30
75621;DHT22;64574;48.506;-2.750;2023-02-21T12:49:17;8.60;80.40
75621;DHT22;64574;48.506;-2.750;2023-02-21T12:55:03;8.60;80.50
75621;DHT22;64574;48.506;-2.750;2023-02-21T13:03:00;8.80;80.60
75621;DHT22;64574;48.506;-2.750;2023-02-21T13:05:45;8.80;80.60
75621;DHT22;64574;48.506;-2.750;2023-02-21T13:08:21;8.90;80.80
75621;DHT22;64574;48.506;-2.750;2023-02-21T13:13:30;8.90;80.70
75621;DHT22;64574;48.506;-2.750;2023-02-21T13:16:01;9.00;80.70
75621;DHT22;64574;48.506;-2.750;2023-02-21T13:18:43;9.00;80.60
75621;DHT22;64574;48.506;-2.750;2023-02-21T13:24:34;9.00;80.50
75621;DHT22;64574;48.506;-2.750;2023-02-21T13:27:20;9.00;80.60
75621;DHT22;64574;48.506;-2.750;2023-02-21T13:29:50;9.00;80.70
75621;DHT22;64574;48.506;-2.750;2023-02-21T13:32:18;9.00;80.80
75621;DHT22;64574;48.506;-2.750;2023-02-21T13:34:51;9.10;80.90
75621;DHT22;64574;48.506;-2.750;2023-02-21T13:37:25;9.00;81.00
75621;DHT22;64574;48.506;-2.750;2023-02-21T13:39:54;9.00;81.20
75621;DHT22;64574;48.506;-2.750;2023-02-21T13:42:27;9.00;81.20
75621;DHT22;64574;48.506;-2.750;2023-02-21T13:45:23;9.20;81.20
75621;DHT22;64574;48.506;-2.750;2023-02-21T13:55:35;9.20;81.50
75621;DHT22;64574;48.506;-2.750;2023-02-21T14:08:40;9.20;82.00
75621;DHT22;64574;48.506;-2.750;2023-02-21T14:18:54;9.10;82.20
75621;DHT22;64574;48.506;-2.750;2023-02-21T14:21:43;9.00;82.30
75621;DHT22;64574;48.506;-2.750;2023-02-21T14:32:26;9.00;82.60
75621;DHT22;64574;48.506;-2.750;2023-02-21T14:34:55;8.90;82.80
75621;DHT22;64574;48.506;-2.750;2023-02-21T14:37:37;8.90;82.70
75621;DHT22;64574;48.506;-2.750;2023-02-21T14:42:50;8.90;83.00
75621;DHT22;64574;48.506;-2.750;2023-02-21T15:02:29;8.90;83.20
75621;DHT22;64574;48.506;-2.750;2023-02-21T15:10:18;8.90;83.60
75621;DHT22;64574;48.506;-2.750;2023-02-21T15:13:00;8.90;84.00
75621;DHT22;64574;48.506;-2.750;2023-02-21T15:18:05;8.90;84.80
75621;DHT22;64574;48.506;-2.750;2023-02-21T15:20:36;8.90;84.90
75621;DHT22;64574;48.506;-2.750;2023-02-21T15:25:34;8.90;85.40
75621;DHT22;64574;48.506;-2.750;2023-02-21T15:28:01;8.90;85.70
75621;DHT22;64574;48.506;-2.750;2023-02-21T15:30:40;8.90;85.70
75621;DHT22;64574;48.506;-2.750;2023-02-21T15:33:19;8.90;85.90
75621;DHT22;64574;48.506;-2.750;2023-02-21T15:35:48;8.90;85.90
75621;DHT22;64574;48.506;-2.750;2023-02-21T15:38:38;9.00;86.10
75621;DHT22;64574;48.506;-2.750;2023-02-21T15:44:07;8.90;86.40
75621;DHT22;64574;48.506;-2.750;2023-02-21T15:47:00;8.90;86.40
75621;DHT22;64574;48.506;-2.750;2023-02-21T15:49:33;8.90;86.50
75621;DHT22;64574;48.506;-2.750;2023-02-21T15:52:01;8.90;86.50
75621;DHT22;64574;48.506;-2.750;2023-02-21T15:54:30;8.90;86.50
75621;DHT22;64574;48.506;-2.750;2023-02-21T15:59:39;8.90;86.50
75621;DHT22;64574;48.506;-2.750;2023-02-21T16:04:39;8.90;86.60
75621;DHT22;64574;48.506;-2.750;2023-02-21T16:07:12;8.90;86.60
75621;DHT22;64574;48.506;-2.750;2023-02-21T16:09:43;8.90;86.60
75621;DHT22;64574;48.506;-2.750;2023-02-21T16:14:46;8.90;86.80
75621;DHT22;64574;48.506;-2.750;2023-02-21T16:20:00;8.90;87.00
75621;DHT22;64574;48.506;-2.750;2023-02-21T16:22:35;9.00;87.10
75621;DHT22;64574;48.506;-2.750;2023-02-21T16:25:21;9.00;87.30
75621;DHT22;64574;48.506;-2.750;2023-02-21T16:27:57;9.00;87.40
75621;DHT22;64574;48.506;-2.750;2023-02-21T16:30:25;9.00;87.60
75621;DHT22;64574;48.506;-2.750;2023-02-21T16:32:52;9.00;87.70
75621;DHT22;64574;48.506;-2.750;2023-02-21T16:35:22;9.10;87.90
75621;DHT22;64574;48.506;-2.750;2023-02-21T16:37:51;9.10;88.10
75621;DHT22;64574;48.506;-2.750;2023-02-21T16:40:26;9.20;88.30
75621;DHT22;64574;48.506;-2.750;2023-02-21T16:42:53;9.20;88.50
75621;DHT22;64574;48.506;-2.750;2023-02-21T16:45:20;9.20;88.40
75621;DHT22;64574;48.506;-2.750;2023-02-21T16:47:55;9.20;88.60
75621;DHT22;64574;48.506;-2.750;2023-02-21T16:50:31;9.10;88.70
75621;DHT22;64574;48.506;-2.750;2023-02-21T16:52:58;9.10;88.70
75621;DHT22;64574;48.506;-2.750;2023-02-21T16:55:24;9.10;88.70
75621;DHT22;64574;48.506;-2.750;2023-02-21T16:57:55;9.00;88.80
75621;DHT22;64574;48.506;-2.750;2023-02-21T17:00:21;9.10;88.90
75621;DHT22;64574;48.506;-2.750;2023-02-21T17:02:48;9.00;88.90
75621;DHT22;64574;48.506;-2.750;2023-02-21T17:05:15;9.00;89.00
75621;DHT22;64574;48.506;-2.750;2023-02-21T17:07:40;9.00;89.00
75621;DHT22;64574;48.506;-2.750;2023-02-21T17:10:07;9.00;89.10
75621;DHT22;64574;48.506;-2.750;2023-02-21T17:12:32;9.00;89.10
75621;DHT22;64574;48.506;-2.750;2023-02-21T17:14:58;9.10;89.50
75621;DHT22;64574;48.506;-2.750;2023-02-21T17:17:23;9.10;89.40
75621;DHT22;64574;48.506;-2.750;2023-02-21T17:19:49;9.00;89.40
75621;DHT22;64574;48.506;-2.750;2023-02-21T17:22:15;9.00;89.40
75621;DHT22;64574;48.506;-2.750;2023-02-21T17:24:41;9.00;89.50
75621;DHT22;64574;48.506;-2.750;2023-02-21T17:27:07;9.00;89.50
75621;DHT22;64574;48.506;-2.750;2023-02-21T17:29:32;9.00;89.70
75621;DHT22;64574;48.506;-2.750;2023-02-21T17:31:58;9.00;89.70
75621;DHT22;64574;48.506;-2.750;2023-02-21T17:34:27;9.00;89.70
75621;DHT22;64574;48.506;-2.750;2023-02-21T17:36:52;9.00;89.80
75621;DHT22;64574;48.506;-2.750;2023-02-21T17:39:19;9.00;89.80
75621;DHT22;64574;48.506;-2.750;2023-02-21T17:41:46;9.00;89.90
75621;DHT22;64574;48.506;-2.750;2023-02-21T17:44:12;9.10;90.00
75621;DHT22;64574;48.506;-2.750;2023-02-21T17:46:38;9.10;90.00
75621;DHT22;64574;48.506;-2.750;2023-02-21T17:49:03;9.10;90.00
75621;DHT22;64574;48.506;-2.750;2023-02-21T17:51:29;9.10;90.20
75621;DHT22;64574;48.506;-2.750;2023-02-21T17:53:55;9.20;90.00
75621;DHT22;64574;48.506;-2.750;2023-02-21T17:56:22;9.20;90.00
75621;DHT22;64574;48.506;-2.750;2023-02-21T17:58:51;9.20;89.90
75621;DHT22;64574;48.506;-2.750;2023-02-21T18:01:18;9.20;89.80
75621;DHT22;64574;48.506;-2.750;2023-02-21T18:03:45;9.20;89.80
75621;DHT22;64574;48.506;-2.750;2023-02-21T18:06:11;9.20;89.70
75621;DHT22;64574;48.506;-2.750;2023-02-21T18:08:37;9.20;89.40
75621;DHT22;64574;48.506;-2.750;2023-02-21T18:11:03;9.20;89.20
75621;DHT22;64574;48.506;-2.750;2023-02-21T18:13:29;9.20;89.20
75621;DHT22;64574;48.506;-2.750;2023-02-21T18:15:54;9.20;89.00
75621;DHT22;64574;48.506;-2.750;2023-02-21T18:18:20;9.20;88.70
75621;DHT22;64574;48.506;-2.750;2023-02-21T18:20:45;9.20;88.40
75621;DHT22;64574;48.506;-2.750;2023-02-21T18:23:11;9.20;88.10
75621;DHT22;64574;48.506;-2.750;2023-02-21T18:25:37;9.20;87.80
75621;DHT22;64574;48.506;-2.750;2023-02-21T18:28:03;9.30;87.50
75621;DHT22;64574;48.506;-2.750;2023-02-21T18:30:29;9.30;87.20
75621;DHT22;64574;48.506;-2.750;2023-02-21T18:32:56;9.40;86.90
75621;DHT22;64574;48.506;-2.750;2023-02-21T18:35:22;9.30;86.60
75621;DHT22;64574;48.506;-2.750;2023-02-21T18:37:47;9.40;86.50
75621;DHT22;64574;48.506;-2.750;2023-02-21T18:40:17;9.30;86.30
75621;DHT22;64574;48.506;-2.750;2023-02-21T18:42:43;9.40;86.10
75621;DHT22;64574;48.506;-2.750;2023-02-21T18:45:10;9.40;85.80
75621;DHT22;64574;48.506;-2.750;2023-02-21T18:47:38;9.40;85.80
75621;DHT22;64574;48.506;-2.750;2023-02-21T18:50:05;9.20;85.70
75621;DHT22;64574;48.506;-2.750;2023-02-21T18:52:31;9.20;85.80
75621;DHT22;64574;48.506;-2.750;2023-02-21T18:54:56;9.20;85.80
75621;DHT22;64574;48.506;-2.750;2023-02-21T18:57:29;9.20;85.80
75621;DHT22;64574;48.506;-2.750;2023-02-21T18:59:56;9.20;85.80
75621;DHT22;64574;48.506;-2.750;2023-02-21T19:02:21;9.20;85.70
75621;DHT22;64574;48.506;-2.750;2023-02-21T19:04:47;9.20;85.60
75621;DHT22;64574;48.506;-2.750;2023-02-21T19:07:14;9.20;85.60